Time;durP1;ratioP1;P1;durP2;ratioP2;P2;SDS_P1;SDS_P2;PMS_P1;PMS_P2;Temp;Humidity;BMP_temperature;BMP_pressure;BME280_temperature;BME280_humidity;BME280_pressure;Samples;Min_cycle;Max_cycle;Signal;HPM_P1;HPM_P2
2022/08/21 00:00:49;;;;;;;7.30;4.10;;;14.30;83.00;;;;;;4925202;29;20043;-68
2022/08/21 00:03:15;;;;;;;10.87;5.10;;;14.30;83.50;;;;;;4899852;29;20074;-69
2022/08/21 00:05:44;;;;;;;9.43;4.43;;;14.30;83.30;;;;;;4929085;29;20326;-68
2022/08/21 00:08:11;;;;;;;8.30;4.83;;;14.30;83.30;;;;;;4929881;29;20798;-68
2022/08/21 00:10:38;;;;;;;10.20;4.83;;;14.30;83.30;;;;;;4929881;29;20319;-69
2022/08/21 00:13:05;;;;;;;10.30;4.97;;;14.30;83.40;;;;;;4911275;29;20306;-68
2022/08/21 00:15:32;;;;;;;12.70;5.47;;;14.30;83.50;;;;;;4922992;29;20306;-68
2022/08/21 00:17:59;;;;;;;8.43;4.57;;;14.30;83.60;;;;;;4923915;29;20286;-69
2022/08/21 00:20:25;;;;;;;8.83;4.70;;;14.30;84.00;;;;;;4924309;29;20336;-68
2022/08/21 00:22:51;;;;;;;11.50;5.20;;;14.30;83.80;;;;;;4920492;29;20288;-68
2022/08/21 00:25:19;;;;;;;12.70;5.33;;;14.20;83.90;;;;;;4926446;29;20649;-69
2022/08/21 00:27:46;;;;;;;10.67;4.90;;;14.20;84.00;;;;;;4927959;29;20875;-68
2022/08/21 00:30:14;;;;;;;11.00;5.10;;;14.20;84.10;;;;;;4930167;29;20378;-68
2022/08/21 00:32:40;;;;;;;13.67;6.30;;;14.20;84.20;;;;;;4914829;29;20346;-69
2022/08/21 00:35:08;;;;;;;9.77;5.37;;;14.20;84.30;;;;;;4926179;29;20315;-68
2022/08/21 00:37:34;;;;;;;8.57;5.00;;;14.20;84.40;;;;;;4924545;29;20279;-69
2022/08/21 00:40:00;;;;;;;9.17;5.50;;;14.20;84.70;;;;;;4925390;29;20295;-69
2022/08/21 00:42:28;;;;;;;9.07;5.37;;;14.20;84.70;;;;;;4910393;29;20090;-70
2022/08/21 00:44:54;;;;;;;11.23;6.00;;;14.20;84.90;;;;;;4925090;29;20327;-69
2022/08/21 00:47:20;;;;;;;10.03;5.97;;;14.20;85.00;;;;;;4902345;29;20330;-69
2022/08/21 00:49:46;;;;;;;12.37;5.20;;;14.20;85.30;;;;;;4908934;29;20095;-69
2022/08/21 00:52:25;;;;;;;10.83;5.43;;;14.20;85.40;;;;;;4896348;29;20524;-69
2022/08/21 00:54:53;;;;;;;8.20;5.07;;;14.20;85.40;;;;;;4909567;29;20055;-69
2022/08/21 00:57:27;;;;;;;12.67;5.27;;;14.20;85.00;;;;;;4925145;29;20573;-69
2022/08/21 00:59:55;;;;;;;9.53;6.03;;;14.20;85.00;;;;;;4914094;29;20298;-69
2022/08/21 01:02:21;;;;;;;11.27;5.83;;;14.20;85.30;;;;;;4929564;29;20294;-69
2022/08/21 01:04:47;;;;;;;9.77;5.40;;;14.20;85.20;;;;;;4914196;29;20862;-69
2022/08/21 01:07:13;;;;;;;9.27;6.47;;;14.10;85.50;;;;;;4909759;29;20035;-69
2022/08/21 01:09:40;;;;;;;11.00;5.47;;;14.10;85.80;;;;;;4915045;29;20300;-69
2022/08/21 01:12:06;;;;;;;10.23;6.47;;;14.10;85.80;;;;;;4909725;29;20047;-69
2022/08/21 01:14:33;;;;;;;11.00;6.10;;;14.10;85.70;;;;;;4911935;29;20308;-69
2022/08/21 01:17:00;;;;;;;9.87;5.70;;;14.10;85.90;;;;;;4927250;29;20826;-69
2022/08/21 01:19:27;;;;;;;9.57;5.07;;;14.00;85.80;;;;;;4924862;29;20282;-69
2022/08/21 01:21:54;;;;;;;11.07;5.90;;;14.00;86.10;;;;;;4931166;29;20283;-69
2022/08/21 01:24:20;;;;;;;10.33;6.10;;;14.00;86.00;;;;;;4919711;29;20292;-69
2022/08/21 01:26:46;;;;;;;8.57;5.60;;;14.00;86.00;;;;;;4912603;29;20284;-69
2022/08/21 01:29:32;;;;;;;10.03;6.10;;;13.90;86.20;;;;;;4912106;29;20295;-69
2022/08/21 01:32:03;;;;;;;9.07;5.57;;;13.90;86.20;;;;;;4919955;29;20549;-69
2022/08/21 01:34:28;;;;;;;9.27;5.73;;;13.90;86.70;;;;;;4924587;29;20303;-69
2022/08/21 01:36:54;;;;;;;11.23;5.80;;;13.90;86.80;;;;;;4909452;29;20283;-69
2022/08/21 01:39:20;;;;;;;9.07;5.77;;;13.80;86.60;;;;;;4901679;29;20520;-69
2022/08/21 01:41:45;;;;;;;11.47;5.80;;;13.80;86.80;;;;;;4927498;29;20157;-69
2022/08/21 01:44:11;;;;;;;9.50;5.33;;;13.80;87.30;;;;;;4925788;29;20081;-69
2022/08/21 01:46:38;;;;;;;8.00;5.87;;;13.80;87.00;;;;;;4919520;29;20063;-69
2022/08/21 01:49:04;;;;;;;10.93;5.57;;;13.80;87.00;;;;;;4907809;29;20040;-70
2022/08/21 01:51:30;;;;;;;9.20;5.27;;;13.80;87.10;;;;;;4923012;29;20391;-69
2022/08/21 01:53:56;;;;;;;11.30;5.20;;;13.90;87.50;;;;;;4924693;29;20386;-69
2022/08/21 01:56:22;;;;;;;8.43;5.37;;;13.90;87.20;;;;;;4909523;29;20451;-69
2022/08/21 01:58:48;;;;;;;9.37;5.53;;;13.90;87.00;;;;;;4909054;29;20103;-69
2022/08/21 02:01:14;;;;;;;9.23;5.97;;;13.90;87.30;;;;;;4926055;29;20662;-69
2022/08/21 02:03:41;;;;;;;10.67;5.00;;;13.90;87.30;;;;;;4909710;29;20350;-69
2022/08/21 02:06:11;;;;;;;9.67;5.70;;;13.90;87.50;;;;;;4911388;29;20339;-69
2022/08/21 02:08:37;;;;;;;9.20;5.30;;;13.90;87.40;;;;;;4928232;29;20307;-69
2022/08/21 02:11:02;;;;;;;8.60;5.57;;;13.90;87.30;;;;;;4908901;29;20307;-69
2022/08/21 02:13:28;;;;;;;12.20;6.00;;;13.90;87.50;;;;;;4911059;29;20400;-70
2022/08/21 02:15:54;;;;;;;8.80;5.17;;;13.90;87.50;;;;;;4918663;29;20039;-69
2022/08/21 02:18:20;;;;;;;9.20;5.17;;;13.90;87.80;;;;;;4907541;29;20122;-69
2022/08/21 02:20:47;;;;;;;13.67;6.00;;;13.90;87.50;;;;;;4925912;29;20404;-69
2022/08/21 02:23:14;;;;;;;10.60;5.53;;;13.90;87.60;;;;;;4922196;29;20050;-69
2022/08/21 02:25:39;;;;;;;9.00;5.27;;;13.90;87.40;;;;;;4933699;29;20295;-69
2022/08/21 02:28:12;;;;;;;11.47;5.90;;;13.90;87.30;;;;;;4909326;29;20323;-69
2022/08/21 02:30:42;;;;;;;13.40;5.83;;;13.90;87.30;;;;;;4915665;29;20044;-69
2022/08/21 02:33:09;;;;;;;8.73;5.53;;;13.90;87.20;;;;;;4923968;29;20342;-69
2022/08/21 02:35:36;;;;;;;10.27;5.53;;;13.90;87.60;;;;;;4909351;29;20287;-69
2022/08/21 02:38:05;;;;;;;11.37;5.53;;;13.80;87.80;;;;;;4922908;29;20291;-69
2022/08/21 02:40:34;;;;;;;10.17;5.30;;;13.90;88.10;;;;;;4919971;29;20330;-70
2022/08/21 02:43:01;;;;;;;10.20;5.40;;;13.90;87.90;;;;;;4914868;29;20291;-69
2022/08/21 02:45:28;;;;;;;9.30;5.10;;;13.90;88.10;;;;;;4925841;29;20291;-69
2022/08/21 02:47:59;;;;;;;13.87;5.40;;;13.90;88.20;;;;;;4917215;29;20359;-69
2022/08/21 02:50:40;;;;;;;9.90;5.20;;;13.80;87.90;;;;;;4905041;29;20284;-69
2022/08/21 02:53:08;;;;;;;9.10;5.43;;;13.80;88.00;;;;;;4913586;29;20283;-69
2022/08/21 02:55:35;;;;;;;7.80;4.57;;;13.80;88.10;;;;;;4922593;29;20283;-69
2022/08/21 02:58:03;;;;;;;9.87;5.40;;;13.80;87.80;;;;;;4914432;29;20411;-69
2022/08/21 03:00:30;;;;;;;8.43;5.13;;;13.80;87.80;;;;;;4910108;29;20287;-69
2022/08/21 03:02:57;;;;;;;11.57;5.87;;;13.80;88.10;;;;;;4919487;29;20291;-69
2022/08/21 03:05:25;;;;;;;9.63;5.33;;;13.80;88.00;;;;;;4922453;29;20350;-69
2022/08/21 03:07:52;;;;;;;11.63;5.53;;;13.80;88.10;;;;;;4906222;29;20303;-69
2022/08/21 03:10:19;;;;;;;10.93;5.20;;;13.80;88.60;;;;;;4910416;29;20310;-69
2022/08/21 03:12:46;;;;;;;12.20;5.07;;;13.80;88.20;;;;;;4921835;29;20280;-69
2022/08/21 03:15:14;;;;;;;9.13;5.37;;;13.80;88.30;;;;;;4920954;29;20292;-69
2022/08/21 03:17:40;;;;;;;12.80;5.53;;;13.80;88.40;;;;;;4937069;28;20839;-70
2022/08/21 03:20:08;;;;;;;12.10;5.80;;;13.80;88.40;;;;;;4909530;29;21085;-70
2022/08/21 03:22:33;;;;;;;11.87;5.80;;;13.80;88.60;;;;;;4923541;29;20347;-69
2022/08/21 03:25:00;;;;;;;10.00;5.50;;;13.80;88.40;;;;;;4909997;29;20299;-69
2022/08/21 03:27:28;;;;;;;11.03;5.50;;;13.80;88.40;;;;;;4921245;29;20613;-69
2022/08/21 03:29:55;;;;;;;10.27;6.00;;;13.80;88.70;;;;;;4928536;29;20763;-69
2022/08/21 03:32:21;;;;;;;11.13;5.97;;;13.80;88.60;;;;;;4923095;29;20403;-69
2022/08/21 03:34:47;;;;;;;9.97;5.23;;;13.80;88.80;;;;;;4924959;29;20295;-69
2022/08/21 03:37:14;;;;;;;9.70;5.20;;;13.80;88.90;;;;;;4927226;29;20043;-69
2022/08/21 03:39:41;;;;;;;10.23;5.50;;;13.80;88.70;;;;;;4923687;29;20040;-69
2022/08/21 03:42:08;;;;;;;9.50;5.73;;;13.80;88.90;;;;;;4905341;29;20958;-69
2022/08/21 03:44:34;;;;;;;9.57;5.13;;;13.70;89.00;;;;;;4919681;29;20288;-69
2022/08/21 03:47:01;;;;;;;10.97;5.67;;;13.80;88.80;;;;;;4908462;29;20284;-69
2022/08/21 03:49:27;;;;;;;11.00;5.87;;;13.80;88.90;;;;;;4923700;29;20665;-69
2022/08/21 03:51:53;;;;;;;10.13;5.63;;;13.80;89.00;;;;;;4910589;29;20280;-70
2022/08/21 03:54:19;;;;;;;12.23;5.70;;;13.80;89.20;;;;;;4920750;29;20299;-70
2022/08/21 03:56:45;;;;;;;12.53;6.57;;;13.70;89.10;;;;;;4903538;29;20362;-69
2022/08/21 03:59:11;;;;;;;12.20;5.67;;;13.70;89.40;;;;;;4921726;29;20279;-69
2022/08/21 04:01:38;;;;;;;14.90;5.80;;;13.70;89.20;;;;;;4906711;29;20044;-70
2022/08/21 04:04:05;;;;;;;12.53;6.10;;;13.70;89.20;;;;;;4891527;29;20039;-69
2022/08/21 04:06:31;;;;;;;9.13;6.47;;;13.70;89.40;;;;;;4907092;29;20793;-69
2022/08/21 04:08:57;;;;;;;11.03;6.27;;;13.70;89.40;;;;;;4920508;29;20296;-69
2022/08/21 04:11:23;;;;;;;13.93;6.37;;;13.70;89.20;;;;;;4925016;29;20306;-69
2022/08/21 04:13:51;;;;;;;11.10;6.23;;;13.70;89.20;;;;;;4908364;29;20043;-69
2022/08/21 04:16:17;;;;;;;10.27;6.10;;;13.70;89.40;;;;;;4909934;29;20668;-69
2022/08/21 04:18:43;;;;;;;13.53;6.17;;;13.70;89.70;;;;;;4920935;29;20303;-70
2022/08/21 04:21:11;;;;;;;12.63;6.50;;;13.80;89.90;;;;;;4909639;29;20296;-69
2022/08/21 04:23:37;;;;;;;12.73;6.83;;;13.80;90.20;;;;;;4931681;29;20102;-70
2022/08/21 04:26:03;;;;;;;13.57;6.87;;;13.80;90.10;;;;;;4910528;29;20283;-69
2022/08/21 04:28:29;;;;;;;15.20;7.30;;;13.80;89.70;;;;;;4916693;29;20292;-70
2022/08/21 04:30:55;;;;;;;13.33;6.37;;;13.80;90.20;;;;;;4921446;29;20052;-70
2022/08/21 04:33:21;;;;;;;11.97;6.70;;;13.80;89.90;;;;;;4920574;29;20155;-70
2022/08/21 04:35:48;;;;;;;13.03;6.93;;;13.80;90.00;;;;;;4907732;29;20374;-70
2022/08/21 04:38:14;;;;;;;13.43;6.87;;;13.80;89.90;;;;;;4914693;29;20040;-69
2022/08/21 04:40:40;;;;;;;12.10;6.70;;;13.90;90.00;;;;;;4926943;29;20299;-70
2022/08/21 04:43:08;;;;;;;12.67;6.67;;;13.90;90.20;;;;;;4912289;29;20374;-70
2022/08/21 04:45:35;;;;;;;10.93;6.97;;;13.90;90.40;;;;;;4923925;29;20055;-69
2022/08/21 04:48:05;;;;;;;13.17;6.90;;;13.90;90.60;;;;;;4912153;29;20313;-70
2022/08/21 04:51:00;;;;;;;14.27;6.47;;;13.90;90.30;;;;;;4912377;29;20303;-69
2022/08/21 04:53:50;;;;;;;9.13;6.30;;;13.90;90.40;;;;;;4911829;29;20283;-70
2022/08/21 04:56:22;;;;;;;13.23;7.07;;;14.00;91.10;;;;;;4925223;29;20074;-69
2022/08/21 04:58:50;;;;;;;11.63;6.83;;;14.00;90.80;;;;;;4917917;29;20330;-69
2022/08/21 05:01:20;;;;;;;12.67;7.03;;;14.00;91.10;;;;;;4923963;29;20785;-70
2022/08/21 05:03:49;;;;;;;10.40;7.03;;;14.10;90.90;;;;;;4927620;29;20326;-70
2022/08/21 05:06:18;;;;;;;13.63;7.30;;;14.10;91.00;;;;;;4910595;29;20287;-70
2022/08/21 05:08:46;;;;;;;11.40;7.20;;;14.20;90.90;;;;;;4918910;29;20304;-70
2022/08/21 05:11:12;;;;;;;10.73;6.37;;;14.20;90.60;;;;;;4914102;29;20696;-70
2022/08/21 05:13:40;;;;;;;15.33;6.70;;;14.20;90.90;;;;;;4908933;29;20284;-70
2022/08/21 05:16:07;;;;;;;14.47;7.30;;;14.30;91.20;;;;;;4926739;29;20776;-69
2022/08/21 05:18:32;;;;;;;12.63;6.67;;;14.30;91.40;;;;;;4943199;29;20298;-70
2022/08/21 05:20:58;;;;;;;10.93;6.40;;;14.40;91.00;;;;;;4925135;29;20284;-70
2022/08/21 05:23:24;;;;;;;13.17;7.40;;;14.50;91.10;;;;;;4906336;29;20135;-70
2022/08/21 05:25:52;;;;;;;13.47;7.33;;;14.50;91.10;;;;;;4899016;29;20050;-70
2022/08/21 05:28:17;;;;;;;13.97;6.90;;;14.60;90.80;;;;;;4925624;29;20303;-70
2022/08/21 05:30:43;;;;;;;13.40;6.63;;;14.60;91.20;;;;;;4911419;29;20299;-70
2022/08/21 05:33:09;;;;;;;14.77;6.17;;;14.70;91.10;;;;;;4910108;29;20124;-70
2022/08/21 05:35:35;;;;;;;13.33;6.37;;;14.70;91.10;;;;;;4894514;29;20528;-70
2022/08/21 05:38:02;;;;;;;11.33;6.23;;;14.80;91.00;;;;;;4922492;29;20047;-70
2022/08/21 05:40:28;;;;;;;11.40;5.90;;;14.90;90.80;;;;;;4904248;29;20776;-70
2022/08/21 05:42:55;;;;;;;12.77;6.63;;;15.00;90.60;;;;;;4924597;29;20848;-70
2022/08/21 05:45:28;;;;;;;10.77;6.53;;;15.00;90.70;;;;;;4908254;29;20291;-70
2022/08/21 05:47:54;;;;;;;12.67;6.80;;;15.10;90.50;;;;;;4927459;29;20338;-70
2022/08/21 05:50:20;;;;;;;14.50;6.57;;;15.20;90.40;;;;;;4910407;29;20814;-70
2022/08/21 05:52:46;;;;;;;13.60;6.73;;;15.20;90.50;;;;;;4921340;29;20284;-71
2022/08/21 05:55:12;;;;;;;10.73;6.50;;;15.30;90.40;;;;;;4905153;29;20575;-70
2022/08/21 05:57:40;;;;;;;9.47;5.67;;;15.40;90.30;;;;;;4935967;29;20051;-70
2022/08/21 06:00:09;;;;;;;11.03;6.17;;;15.50;90.30;;;;;;4912230;29;20287;-70
2022/08/21 06:02:35;;;;;;;13.10;6.03;;;15.70;90.60;;;;;;4906804;29;20355;-70
2022/08/21 06:05:01;;;;;;;12.50;6.47;;;15.80;90.60;;;;;;4904827;29;20772;-71
2022/08/21 06:07:27;;;;;;;12.50;6.30;;;15.90;90.70;;;;;;4910595;29;20336;-70
2022/08/21 06:09:52;;;;;;;11.50;6.10;;;16.10;90.90;;;;;;4928321;29;20143;-70
2022/08/21 06:12:19;;;;;;;12.80;5.70;;;16.40;91.00;;;;;;4924969;29;20135;-70
2022/08/21 06:14:45;;;;;;;13.47;5.03;;;16.70;90.70;;;;;;4895177;29;20891;-71
2022/08/21 06:17:14;;;;;;;10.90;5.10;;;16.90;90.00;;;;;;4894534;29;20036;-71
2022/08/21 06:19:40;;;;;;;10.90;4.97;;;17.10;89.60;;;;;;4909505;29;20043;-70
2022/08/21 06:22:06;;;;;;;11.50;5.47;;;17.30;89.20;;;;;;4902158;29;20378;-71
2022/08/21 06:24:32;;;;;;;9.77;4.93;;;17.40;88.80;;;;;;4909762;29;20036;-70
2022/08/21 06:27:03;;;;;;;9.33;4.87;;;17.60;88.30;;;;;;4923242;29;20152;-70
2022/08/21 06:29:29;;;;;;;11.87;5.57;;;17.70;87.90;;;;;;4921520;29;20837;-71
2022/08/21 06:31:55;;;;;;;10.17;4.93;;;17.90;87.20;;;;;;4925191;29;20552;-70
2022/08/21 06:34:21;;;;;;;9.80;4.47;;;18.00;86.80;;;;;;4909403;29;20528;-70
2022/08/21 06:36:47;;;;;;;12.10;5.17;;;18.10;86.50;;;;;;4921198;29;20340;-70
2022/08/21 06:39:13;;;;;;;11.30;4.50;;;18.20;85.80;;;;;;4922992;29;20047;-70
2022/08/21 06:41:39;;;;;;;10.53;4.37;;;18.30;85.40;;;;;;4919024;29;20368;-71
2022/08/21 06:44:04;;;;;;;9.03;4.57;;;18.30;85.30;;;;;;4889048;29;20292;-70
2022/08/21 06:46:30;;;;;;;10.27;4.73;;;18.30;84.90;;;;;;4915841;29;20078;-70
2022/08/21 06:48:57;;;;;;;10.00;3.67;;;18.40;85.00;;;;;;4909130;29;20054;-70
2022/08/21 06:51:25;;;;;;;8.07;4.03;;;18.40;85.00;;;;;;4906400;29;20940;-70
2022/08/21 06:53:51;;;;;;;9.93;3.67;;;18.50;84.90;;;;;;4920438;29;20695;-70
2022/08/21 06:56:17;;;;;;;12.07;4.47;;;18.60;84.80;;;;;;4902755;29;20323;-70
2022/08/21 06:58:42;;;;;;;10.27;3.90;;;18.60;84.20;;;;;;4911400;29;20292;-70
2022/08/21 07:01:08;;;;;;;8.53;4.57;;;18.70;84.00;;;;;;4921035;29;20044;-70
2022/08/21 07:03:37;;;;;;;10.10;3.77;;;18.80;84.20;;;;;;4891741;29;20035;-70
2022/08/21 07:06:07;;;;;;;8.37;3.30;;;18.90;84.00;;;;;;4922662;29;20046;-70
2022/08/21 07:08:34;;;;;;;11.00;3.53;;;18.90;83.40;;;;;;4909708;29;20307;-70
2022/08/21 07:11:02;;;;;;;11.40;3.73;;;19.00;83.60;;;;;;4923064;29;20295;-70
2022/08/21 07:13:28;;;;;;;6.57;3.23;;;19.20;83.30;;;;;;4925721;29;20036;-70
2022/08/21 07:15:53;;;;;;;8.23;3.57;;;19.40;82.80;;;;;;4923363;29;21037;-70
2022/08/21 07:18:19;;;;;;;6.87;3.40;;;19.60;82.20;;;;;;4903665;29;20511;-70
2022/08/21 07:20:45;;;;;;;7.43;3.57;;;19.70;81.80;;;;;;4914480;29;20086;-71
2022/08/21 07:23:36;;;;;;;10.43;3.27;;;19.90;81.50;;;;;;4921757;29;20047;-70
2022/08/21 07:26:02;;;;;;;8.90;3.50;;;20.10;80.80;;;;;;4919937;29;20055;-70
2022/08/21 07:28:28;;;;;;;9.97;3.43;;;20.30;80.40;;;;;;4908936;29;20043;-70
2022/08/21 07:30:58;;;;;;;10.40;3.40;;;20.40;80.10;;;;;;4907074;29;20036;-70
2022/08/21 07:33:26;;;;;;;7.83;3.30;;;20.60;79.50;;;;;;4923721;29;20040;-70
2022/08/21 07:35:52;;;;;;;11.80;3.50;;;20.80;78.80;;;;;;4921942;29;20163;-70
2022/08/21 07:38:18;;;;;;;11.77;3.43;;;20.90;78.40;;;;;;4915910;29;20060;-70
2022/08/21 07:40:45;;;;;;;8.50;3.00;;;21.10;78.20;;;;;;4922720;29;20570;-70
2022/08/21 07:43:11;;;;;;;12.43;3.33;;;21.20;77.80;;;;;;4922450;29;20083;-70
2022/08/21 07:45:37;;;;;;;12.07;2.87;;;21.20;77.20;;;;;;4922920;29;20093;-70
2022/08/21 07:48:04;;;;;;;8.20;2.57;;;21.20;77.10;;;;;;4908636;29;20044;-70
2022/08/21 07:50:30;;;;;;;8.83;3.07;;;21.10;77.30;;;;;;4918200;29;20044;-70
2022/08/21 07:52:55;;;;;;;9.03;2.33;;;21.00;77.30;;;;;;4924499;29;20456;-71
2022/08/21 07:55:23;;;;;;;8.60;2.70;;;21.10;77.50;;;;;;4914779;29;20434;-71
2022/08/21 07:57:49;;;;;;;13.07;2.90;;;21.20;77.70;;;;;;4923536;29;20051;-70
2022/08/21 08:00:19;;;;;;;7.90;2.90;;;21.40;77.60;;;;;;4927366;29;20036;-70
2022/08/21 08:02:49;;;;;;;12.50;3.43;;;21.50;77.10;;;;;;4919565;29;20131;-71
2022/08/21 08:05:16;;;;;;;11.40;2.87;;;21.60;76.50;;;;;;4921374;29;20207;-72
2022/08/21 08:07:42;;;;;;;5.13;2.20;;;21.90;76.20;;;;;;4923330;29;20501;-71
2022/08/21 08:10:09;;;;;;;9.77;2.57;;;22.00;75.60;;;;;;4905979;29;20032;-71
2022/08/21 08:12:41;;;;;;;8.10;2.10;;;22.00;74.80;;;;;;4913308;29;20517;-71
2022/08/21 08:15:10;;;;;;;9.07;2.33;;;22.00;74.80;;;;;;4920254;29;20055;-71
2022/08/21 08:17:38;;;;;;;7.60;2.20;;;22.00;74.80;;;;;;4928187;29;20115;-71
2022/08/21 08:20:06;;;;;;;7.70;2.20;;;22.00;74.80;;;;;;4927485;29;20122;-71
2022/08/21 08:22:34;;;;;;;8.17;1.80;;;22.10;74.90;;;;;;4905990;29;20555;-70
2022/08/21 08:25:01;;;;;;;10.90;2.27;;;22.10;74.10;;;;;;4912203;29;20104;-71
2022/08/21 08:27:27;;;;;;;10.53;2.50;;;22.10;74.30;;;;;;4928697;29;20051;-71
2022/08/21 08:29:52;;;;;;;11.70;2.63;;;22.20;73.90;;;;;;4924957;29;20063;-71
2022/08/21 08:32:19;;;;;;;12.23;2.27;;;22.30;73.80;;;;;;4920796;29;20400;-71
2022/08/21 08:34:46;;;;;;;7.57;2.90;;;22.40;73.40;;;;;;4912790;29;20035;-71
2022/08/21 08:37:12;;;;;;;8.03;2.30;;;22.70;73.40;;;;;;4910406;29;20571;-70
2022/08/21 08:39:38;;;;;;;11.13;2.10;;;22.80;71.80;;;;;;4908347;29;20043;-70
2022/08/21 08:42:19;;;;;;;7.60;1.93;;;22.70;68.90;;;;;;4898148;29;20038;-71
2022/08/21 08:44:46;;;;;;;11.77;2.27;;;22.20;69.40;;;;;;4927505;29;20040;-71
2022/08/21 08:47:17;;;;;;;7.13;2.43;;;22.20;70.20;;;;;;4929545;29;20032;-70
2022/08/21 08:49:54;;;;;;;9.37;2.10;;;22.00;70.70;;;;;;4925446;29;20401;-71
2022/08/21 08:52:27;;;;;;;11.17;2.67;;;22.00;70.70;;;;;;4910360;29;20094;-70
2022/08/21 08:55:11;;;;;;;7.27;2.33;;;22.00;70.80;;;;;;4924632;29;20064;-70
2022/08/21 08:57:39;;;;;;;8.50;1.80;;;22.10;70.00;;;;;;4923031;29;20206;-70
2022/08/21 09:00:10;;;;;;;10.83;2.20;;;22.10;70.40;;;;;;4902858;29;20043;-70
2022/08/21 09:02:38;;;;;;;9.33;2.63;;;22.30;70.90;;;;;;4922536;29;20040;-71
2022/08/21 09:05:05;;;;;;;9.70;1.90;;;22.60;69.90;;;;;;4903070;29;20067;-70
2022/08/21 09:07:53;;;;;;;6.77;1.90;;;22.70;67.80;;;;;;4905940;29;20461;-70
2022/08/21 09:10:37;;;;;;;7.97;2.10;;;22.90;67.20;;;;;;4925751;29;20048;-70
2022/08/21 09:13:28;;;;;;;5.73;1.70;;;23.00;67.20;;;;;;4926286;29;20050;-70
2022/08/21 09:16:30;;;;;;;10.93;2.63;;;23.20;67.60;;;;;;4893612;29;21159;-70
2022/08/21 09:19:15;;;;;;;7.77;2.30;;;22.90;64.80;;;;;;4923669;29;20046;-70
2022/08/21 09:21:43;;;;;;;7.97;2.50;;;22.70;66.60;;;;;;4923670;29;20039;-70
2022/08/21 09:24:27;;;;;;;6.97;1.83;;;22.50;67.80;;;;;;4907930;29;20051;-70
2022/08/21 09:27:02;;;;;;;10.00;2.07;;;22.50;68.30;;;;;;4927899;29;20051;-70
2022/08/21 09:29:33;;;;;;;8.33;2.00;;;22.40;67.40;;;;;;4908527;29;20131;-70
2022/08/21 09:31:59;;;;;;;10.63;2.07;;;22.30;68.30;;;;;;4923098;29;20035;-70
2022/08/21 09:34:29;;;;;;;8.83;2.00;;;22.30;68.90;;;;;;4906092;29;20043;-70
2022/08/21 09:36:55;;;;;;;8.03;2.10;;;22.60;68.80;;;;;;4923297;29;21011;-71
2022/08/21 09:39:27;;;;;;;7.20;1.70;;;22.80;66.50;;;;;;4905650;29;20382;-70
2022/08/21 09:42:04;;;;;;;10.50;2.10;;;23.00;67.10;;;;;;4904560;29;20044;-70
2022/08/21 09:44:39;;;;;;;7.00;1.80;;;23.30;66.10;;;;;;4928216;29;20073;-70
2022/08/21 09:47:06;;;;;;;9.40;2.23;;;23.50;64.70;;;;;;4925629;29;20500;-70
2022/08/21 09:49:38;;;;;;;6.37;1.73;;;23.50;63.70;;;;;;4919310;29;20086;-70
2022/08/21 09:52:16;;;;;;;9.83;2.43;;;23.30;62.20;;;;;;4927890;29;20040;-70
2022/08/21 09:54:45;;;;;;;5.67;1.83;;;22.90;62.90;;;;;;4914403;29;20063;-70
2022/08/21 09:57:40;;;;;;;8.20;1.87;;;22.70;64.20;;;;;;4927911;29;20048;-70
2022/08/21 10:00:19;;;;;;;11.20;1.80;;;22.60;64.60;;;;;;4928831;29;20074;-70
2022/08/21 10:02:50;;;;;;;10.13;2.33;;;22.40;64.10;;;;;;4910722;29;20032;-70
2022/08/21 10:05:18;;;;;;;6.37;1.77;;;22.20;65.20;;;;;;4900942;29;20552;-70
2022/08/21 10:07:44;;;;;;;8.03;1.90;;;22.20;65.20;;;;;;4918915;29;20048;-70
2022/08/21 10:10:22;;;;;;;5.33;1.63;;;22.10;64.20;;;;;;4928405;29;20046;-70
2022/08/21 10:13:00;;;;;;;6.77;1.63;;;22.20;64.50;;;;;;4928782;29;20047;-70
2022/08/21 10:16:05;;;;;;;5.03;1.47;;;22.40;64.20;;;;;;4927142;29;20118;-70
2022/08/21 10:18:36;;;;;;;;;;;22.80;63.40;;;;;;4926766;29;20059;-70
2022/08/21 10:21:40;;;;;;;3.00;1.43;;;23.20;60.50;;;;;;4910818;29;19930;-70
2022/08/21 10:24:50;;;;;;;8.07;1.50;;;23.50;59.40;;;;;;4906728;29;20420;-70
2022/08/21 10:27:28;;;;;;;5.13;1.20;;;23.70;59.20;;;;;;4893251;29;20051;-70
2022/08/21 10:30:14;;;;;;;4.33;1.23;;;23.70;57.70;;;;;;4925305;29;20127;-70
2022/08/21 10:33:00;;;;;;;6.90;1.07;;;23.70;56.40;;;;;;4919220;29;20047;-71
2022/08/21 10:35:35;;;;;;;6.17;1.10;;;23.90;57.60;;;;;;4920342;29;20075;-70
2022/08/21 10:38:16;;;;;;;4.63;1.00;;;24.20;58.00;;;;;;4919229;29;20047;-70
2022/08/21 10:40:50;;;;;;;3.43;1.00;;;24.30;57.10;;;;;;4905344;29;20051;-68
2022/08/21 10:43:38;;;;;;;6.78;1.23;;;24.60;54.90;;;;;;4928325;29;20168;-68
2022/08/21 10:46:28;;;;;;;4.70;0.80;;;24.60;54.40;;;;;;4927296;29;20043;-68
2022/08/21 10:49:12;;;;;;;4.43;0.80;;;24.20;55.20;;;;;;4927909;29;20377;-68
2022/08/21 10:51:48;;;;;;;4.00;1.07;;;23.70;56.70;;;;;;4923202;29;20075;-68
2022/08/21 10:54:48;;;;;;;5.10;0.80;;;23.40;57.70;;;;;;4904635;29;20047;-71
2022/08/21 10:57:34;;;;;;;5.90;0.70;;;23.10;58.40;;;;;;4924863;29;20127;-70
2022/08/21 11:00:01;;;;;;;;;;;23.00;59.10;;;;;;4924120;29;20040;-70
2022/08/21 11:02:41;;;;;;;6.10;0.80;;;22.90;58.70;;;;;;4908928;29;20063;-72
2022/08/21 11:05:13;;;;;;;3.50;0.70;;;23.00;58.30;;;;;;4923884;29;20117;-68
2022/08/21 11:07:53;;;;;;;3.20;0.90;;;23.00;59.30;;;;;;4921338;29;20044;-68
2022/08/21 11:10:41;;;;;;;6.60;1.10;;;23.30;59.00;;;;;;4911474;29;20085;-68
2022/08/21 11:13:35;;;;;;;3.07;0.80;;;23.40;58.30;;;;;;4919917;29;20051;-68
2022/08/21 11:16:19;;;;;;;6.03;1.63;;;23.40;59.30;;;;;;4920115;29;20120;-71
2022/08/21 11:19:02;;;;;;;5.93;0.93;;;23.60;56.90;;;;;;4927957;29;20047;-68
2022/08/21 11:21:37;;;;;;;3.87;0.80;;;23.90;57.20;;;;;;4919268;29;20055;-68
2022/08/21 11:24:36;;;;;;;4.07;0.90;;;24.10;55.90;;;;;;4902336;29;20053;-67
2022/08/21 11:27:20;;;;;;;5.40;1.30;;;24.20;55.40;;;;;;4904685;29;20051;-68
2022/08/21 11:29:57;;;;;;;5.87;0.97;;;24.20;55.20;;;;;;4901176;29;20056;-67
2022/08/21 11:32:38;;;;;;;3.30;1.00;;;24.30;54.60;;;;;;4915583;29;20152;-68
2022/08/21 11:35:29;;;;;;;4.83;1.40;;;24.20;53.00;;;;;;4922316;29;20039;-68
2022/08/21 11:38:01;;;;;;;3.40;1.10;;;24.00;53.90;;;;;;4905416;29;20048;-68
2022/08/21 11:40:42;;;;;;;7.93;1.20;;;23.80;54.60;;;;;;4920260;29;20048;-68
2022/08/21 11:43:23;;;;;;;6.47;1.20;;;23.70;55.40;;;;;;4923373;29;20047;-67
2022/08/21 11:46:01;;;;;;;8.07;1.43;;;24.00;55.90;;;;;;4924592;29;20131;-68
2022/08/21 11:48:58;;;;;;;4.70;1.13;;;24.20;55.20;;;;;;4924875;29;20040;-69
2022/08/21 11:52:02;;;;;;;4.00;1.07;;;24.10;54.40;;;;;;4909502;29;20452;-68
2022/08/21 11:54:35;;;;;;;5.63;1.40;;;23.90;54.10;;;;;;4904544;29;20096;-68
2022/08/21 11:57:08;;;;;;;3.95;0.90;;;23.80;55.40;;;;;;4926081;29;20048;-69
2022/08/21 11:59:45;;;;;;;4.20;1.03;;;23.70;55.40;;;;;;4924509;29;20035;-70
2022/08/21 12:02:15;;;;;;;3.87;0.83;;;23.60;55.20;;;;;;4924407;29;20618;-70
2022/08/21 12:05:01;;;;;;;9.23;1.77;;;23.50;56.20;;;;;;4920221;29;20051;-69
2022/08/21 12:07:37;;;;;;;4.77;1.50;;;23.50;55.00;;;;;;4907301;29;20039;-69
2022/08/21 12:10:10;;;;;;;3.63;1.00;;;23.60;55.60;;;;;;4921838;29;20544;-69
2022/08/21 12:12:38;;;;;;;4.23;1.00;;;23.70;55.60;;;;;;4924593;29;20075;-70
2022/08/21 12:15:39;;;;;;;4.83;1.20;;;23.70;55.80;;;;;;4921343;29;20051;-70
2022/08/21 12:18:19;;;;;;;2.63;0.60;;;23.60;54.70;;;;;;4871476;29;20044;-69
2022/08/21 12:21:03;;;;;;;3.23;1.00;;;23.60;55.90;;;;;;4920685;29;20056;-69
2022/08/21 12:23:34;;;;;;;4.80;1.10;;;23.80;57.20;;;;;;4907893;29;20127;-70
2022/08/21 12:26:20;;;;;;;5.53;0.73;;;24.20;54.90;;;;;;4937145;28;20810;-69
2022/08/21 12:28:47;;;;;;;4.77;0.87;;;24.40;53.80;;;;;;4922965;29;20051;-69
2022/08/21 12:31:24;;;;;;;6.83;1.30;;;24.50;53.70;;;;;;4926575;29;20043;-69
2022/08/21 12:34:04;;;;;;;3.27;1.27;;;24.60;53.50;;;;;;4902843;29;20063;-70
2022/08/21 12:36:46;;;;;;;6.30;1.17;;;24.90;53.70;;;;;;4902733;29;20123;-70
2022/08/21 12:39:21;;;;;;;2.90;0.70;;;25.00;51.90;;;;;;4926377;29;20044;-70
2022/08/21 12:41:53;;;;;;;4.13;0.70;;;25.00;51.40;;;;;;4927368;29;20496;-70
2022/08/21 12:44:45;;;;;;;5.23;1.30;;;25.00;51.90;;;;;;4926585;29;20087;-70
2022/08/21 12:47:33;;;;;;;3.27;1.10;;;25.00;50.90;;;;;;4916517;29;20048;-69
2022/08/21 12:50:10;;;;;;;5.80;1.00;;;24.90;51.90;;;;;;4926637;29;20050;-70
2022/08/21 12:52:53;;;;;;;4.30;1.30;;;25.00;52.30;;;;;;4918181;29;20894;-70
2022/08/21 12:55:28;;;;;;;5.47;1.20;;;25.00;52.00;;;;;;4914445;29;20513;-69
2022/08/21 12:57:53;;;;;;;4.13;0.90;;;25.00;52.50;;;;;;4925816;29;20083;-70
2022/08/21 13:00:23;;;;;;;3.23;0.80;;;24.80;52.10;;;;;;4905175;29;20539;-70
2022/08/21 13:02:50;;;;;;;4.73;0.83;;;24.80;51.20;;;;;;4926226;29;20051;-69